Time;durP1;ratioP1;P1;durP2;ratioP2;P2;SDS_P1;SDS_P2;PMS_P1;PMS_P2;Temp;Humidity;BMP_temperature;BMP_pressure;BME280_temperature;BME280_humidity;BME280_pressure;Samples;Min_cycle;Max_cycle;Signal;HPM_P1;HPM_P2
2022/03/14 00:02:27;;;;;;;5.05;4.55;;;;;;;5.38;28.02;100547.09;10457398;28;20044;-70
2022/03/14 00:07:31;;;;;;;6.07;4.70;;;;;;;5.15;27.86;100541.91;10440598;28;20410;-72
2022/03/14 00:12:33;;;;;;;5.45;4.95;;;;;;;5.13;27.86;100534.09;10423138;28;20107;-71
2022/03/14 00:17:34;;;;;;;6.00;5.13;;;;;;;5.28;28.31;100541.03;10458104;28;20052;-72
2022/03/14 00:22:37;;;;;;;7.72;4.82;;;;;;;5.15;27.68;100541.91;10457814;28;20502;-70
2022/03/14 00:27:39;;;;;;;6.32;5.00;;;;;;;5.13;28.03;100539.31;10440389;28;20049;-71
2022/03/14 00:32:41;;;;;;;6.40;5.22;;;;;;;5.38;27.62;100544.47;10445612;28;20045;-70
2022/03/14 00:37:43;;;;;;;4.82;4.38;;;;;;;5.11;28.44;100558.44;10446494;28;20461;-72
2022/03/14 00:42:48;;;;;;;6.05;5.25;;;;;;;4.99;29.29;100556.69;10446178;28;20537;-71
2022/03/14 00:47:50;;;;;;;6.00;4.95;;;;;;;4.58;29.94;100572.31;10464624;28;20052;-70
2022/03/14 00:52:52;;;;;;;5.07;4.57;;;;;;;4.57;31.32;100565.38;10464123;28;20041;-71
2022/03/14 00:57:54;;;;;;;5.50;4.90;;;;;;;4.13;32.11;100563.56;10446242;28;20045;-70
2022/03/14 01:02:55;;;;;;;9.50;5.30;;;;;;;4.05;32.81;100572.19;10464670;28;20044;-72
2022/03/14 01:07:57;;;;;;;6.25;4.90;;;;;;;3.73;32.23;100574.69;10445963;28;20053;-70
2022/03/14 01:13:01;;;;;;;6.10;4.72;;;;;;;3.96;30.83;100572.16;10463315;28;20103;-70
2022/03/14 01:18:05;;;;;;;5.80;5.20;;;;;;;4.04;30.67;100580.88;10463188;28;20041;-71
2022/03/14 01:23:06;;;;;;;5.80;4.70;;;;;;;3.98;30.33;100562.63;10462564;28;20049;-72
2022/03/14 01:28:08;;;;;;;5.57;4.97;;;;;;;4.20;30.04;100568.75;10462644;28;20059;-71
2022/03/14 01:33:11;;;;;;;5.05;4.22;;;;;;;4.22;30.08;100567.03;10462190;28;20406;-70
2022/03/14 01:38:13;;;;;;;6.40;5.03;;;;;;;4.51;29.63;100561.88;10462626;28;20487;-71
2022/03/14 01:43:15;;;;;;;5.50;5.00;;;;;;;4.48;29.58;100571.44;10444908;28;20491;-72
2022/03/14 01:48:17;;;;;;;5.72;5.13;;;;;;;4.72;29.46;100570.59;10462694;28;20518;-72
2022/03/14 01:53:20;;;;;;;5.65;5.07;;;;;;;4.38;29.82;100565.31;10443937;28;20048;-71
2022/03/14 01:58:22;;;;;;;5.65;5.13;;;;;;;4.39;29.33;100559.28;10462347;28;20053;-72
2022/03/14 02:03:24;;;;;;;6.63;5.95;;;;;;;4.18;30.15;100564.44;10462406;28;20071;-71
2022/03/14 02:08:26;;;;;;;6.10;5.50;;;;;;;4.13;30.16;100553.16;10443699;28;20087;-71
2022/03/14 02:13:28;;;;;;;6.10;5.50;;;;;;;4.54;29.68;100556.69;10461457;28;20049;-72
2022/03/14 02:18:29;;;;;;;6.28;5.38;;;;;;;4.22;29.93;100555.78;10461155;28;20111;-71
2022/03/14 02:23:31;;;;;;;6.93;6.32;;;;;;;4.25;29.99;100560.97;10460443;28;20044;-71
2022/03/14 02:28:32;;;;;;;6.90;6.20;;;;;;;4.19;30.24;100558.34;10461013;28;20041;-71
2022/03/14 02:33:34;;;;;;;6.60;5.95;;;;;;;4.21;30.38;100567.91;10459774;28;20053;-71
2022/03/14 02:38:36;;;;;;;7.22;5.97;;;;;;;3.85;30.54;100578.19;10460426;28;20045;-71
2022/03/14 02:43:37;;;;;;;6.63;5.93;;;;;;;4.01;30.42;100586.06;10460414;28;20054;-72
2022/03/14 02:48:40;;;;;;;7.15;5.72;;;;;;;4.07;30.72;100589.53;10460515;28;20048;-70
2022/03/14 02:53:41;;;;;;;6.75;5.55;;;;;;;3.87;30.74;100600.75;10441347;28;20045;-71
2022/03/14 02:58:43;;;;;;;6.85;5.50;;;;;;;3.74;30.82;100591.13;10460312;28;20107;-72
2022/03/14 03:03:45;;;;;;;6.90;5.70;;;;;;;4.09;30.17;100588.69;10461314;28;20064;-72
2022/03/14 03:08:48;;;;;;;6.15;5.55;;;;;;;4.18;30.73;100587.84;10462396;28;20041;-72
2022/03/14 03:13:54;;;;;;;6.22;5.55;;;;;;;4.22;30.10;100600.00;10443580;28;20102;-72
2022/03/14 03:18:56;;;;;;;8.85;5.75;;;;;;;4.19;30.64;100595.66;10460275;28;20075;-72
2022/03/14 03:23:57;;;;;;;6.03;5.43;;;;;;;4.23;30.39;100610.41;10459673;28;20055;-71
2022/03/14 03:28:59;;;;;;;6.85;6.15;;;;;;;4.25;30.29;100610.41;10459448;28;20099;-72
2022/03/14 03:34:01;;;;;;;7.10;6.40;;;;;;;4.15;30.46;100621.66;10460168;28;20132;-72
2022/03/14 03:39:02;;;;;;;8.60;6.10;;;;;;;4.11;30.74;100632.91;10460452;28;20067;-71
2022/03/14 03:44:05;;;;;;;8.75;6.63;;;;;;;4.19;31.12;100645.09;10460477;28;20494;-71
2022/03/14 03:49:07;;;;;;;7.63;6.82;;;;;;;4.35;30.41;100638.22;10458926;28;20158;-71
2022/03/14 03:54:10;;;;;;;6.32;5.72;;;;;;;4.29;30.96;100640.78;10441432;28;20107;-72
2022/03/14 03:59:12;;;;;;;7.78;6.10;;;;;;;4.18;30.98;100655.50;10441361;28;20045;-71
2022/03/14 04:04:14;;;;;;;7.38;6.25;;;;;;;4.29;31.31;100654.69;10462020;28;20045;-72
2022/03/14 04:09:15;;;;;;;6.32;5.72;;;;;;;4.04;31.19;100658.91;10468443;28;20483;-71
2022/03/14 04:14:18;;;;;;;7.15;6.28;;;;;;;3.86;31.59;100668.34;10450718;28;20545;-72
2022/03/14 04:19:20;;;;;;;7.18;6.05;;;;;;;3.65;32.24;100661.28;10468867;28;20041;-71
2022/03/14 04:24:22;;;;;;;6.53;5.70;;;;;;;3.69;32.20;100660.44;10468497;28;20045;-72
2022/03/14 04:29:23;;;;;;;8.00;5.70;;;;;;;3.93;32.22;100657.97;10468091;28;20049;-71
2022/03/14 04:34:25;;;;;;;7.82;6.05;;;;;;;3.97;31.78;100654.53;10468041;28;20063;-72
2022/03/14 04:39:26;;;;;;;9.38;5.90;;;;;;;3.93;32.35;100657.09;10468154;28;20025;-70
2022/03/14 04:44:28;;;;;;;7.38;6.65;;;;;;;4.07;31.44;100659.78;10466624;28;20102;-70
2022/03/14 04:49:30;;;;;;;6.75;5.85;;;;;;;3.94;32.10;100670.16;10466328;28;20045;-70
2022/03/14 04:54:32;;;;;;;6.47;5.88;;;;;;;3.85;32.16;100682.19;10467437;28;20049;-70
2022/03/14 04:59:33;;;;;;;10.18;6.03;;;;;;;4.08;31.71;100683.22;10449665;28;20043;-71
2022/03/14 05:04:37;;;;;;;6.32;5.68;;;;;;;3.74;32.95;100680.41;10466338;28;20080;-70
2022/03/14 05:09:38;;;;;;;6.57;5.95;;;;;;;3.62;32.73;100700.25;10467277;28;20053;-71
2022/03/14 05:14:40;;;;;;;6.97;5.93;;;;;;;3.70;32.85;100703.78;10467086;28;20035;-71
2022/03/14 05:19:42;;;;;;;6.65;5.95;;;;;;;4.00;31.92;100703.97;10463691;28;20541;-71
2022/03/14 05:24:43;;;;;;;6.07;5.15;;;;;;;3.68;32.31;100708.13;10447902;28;20107;-70
2022/03/14 05:29:45;;;;;;;6.95;6.30;;;;;;;3.77;32.62;100711.66;10448297;28;20049;-70
2022/03/14 05:34:46;;;;;;;8.15;5.53;;;;;;;3.70;32.78;100709.84;10464031;28;20043;-69
2022/03/14 05:39:49;;;;;;;6.30;5.53;;;;;;;3.62;32.73;100716.72;10464243;28;20410;-71
2022/03/14 05:44:50;;;;;;;6.22;5.63;;;;;;;3.80;32.50;100723.78;10464445;28;20047;-70
2022/03/14 05:49:52;;;;;;;6.18;5.25;;;;;;;3.89;32.49;100731.66;10463480;28;20049;-70
2022/03/14 05:54:53;;;;;;;8.43;5.50;;;;;;;3.92;32.36;100736.88;10464905;28;20053;-70
2022/03/14 05:59:55;;;;;;;6.97;5.97;;;;;;;4.62;30.81;100738.09;10463894;28;20045;-71
2022/03/14 06:04:58;;;;;;;8.77;5.75;;;;;;;4.42;31.32;100744.09;10446511;28;20499;-70
2022/03/14 06:09:59;;;;;;;10.13;5.63;;;;;;;4.59;31.79;100743.28;10462342;28;20052;-71
2022/03/14 06:15:03;;;;;;;8.00;5.90;;;;;;;5.22;30.60;100745.22;10462031;28;20439;-69
2022/03/14 06:20:06;;;;;;;5.85;5.25;;;;;;;6.45;29.00;100743.34;10444326;28;20060;-72
2022/03/14 06:25:09;;;;;;;7.63;6.30;;;;;;;7.20;28.46;100744.72;10462155;28;20056;-70
2022/03/14 06:30:11;;;;;;;6.13;5.53;;;;;;;7.65;28.16;100734.78;10444070;28;20045;-70
2022/03/14 06:35:14;;;;;;;6.78;5.97;;;;;;;6.71;28.60;100752.84;10462598;28;20099;-70
2022/03/14 06:40:16;;;;;;;7.07;6.38;;;;;;;6.53;28.95;100751.16;10462795;28;20049;-70
2022/03/14 06:45:23;;;;;;;8.25;5.72;;;;;;;6.72;28.88;100768.50;10461738;28;20053;-71
2022/03/14 06:50:25;;;;;;;9.23;6.25;;;;;;;6.92;28.93;100778.00;10461081;28;20119;-70
2022/03/14 06:55:31;;;;;;;6.43;5.37;;;;;;;6.81;28.92;100786.75;10444385;28;20068;-71
2022/03/14 07:00:34;;;;;;;6.47;5.88;;;;;;;6.75;29.25;100781.56;10442372;28;20158;-70
2022/03/14 07:05:35;;;;;;;7.85;5.75;;;;;;;6.60;28.97;100791.19;10461409;28;20091;-71
2022/03/14 07:10:37;;;;;;;6.47;5.82;;;;;;;6.98;28.52;100801.47;10462325;28;20037;-71
2022/03/14 07:15:39;;;;;;;7.28;5.57;;;;;;;7.46;27.92;100807.31;10460598;28;20087;-70
2022/03/14 07:20:41;;;;;;;7.45;5.97;;;;;;;7.52;28.09;100799.41;10461199;28;20045;-70
2022/03/14 07:25:43;;;;;;;6.63;5.90;;;;;;;7.46;28.20;100802.94;10461350;28;20047;-70
2022/03/14 07:30:45;;;;;;;6.50;5.75;;;;;;;7.32;28.45;100813.50;10460177;28;20406;-70
2022/03/14 07:35:47;;;;;;;7.97;6.18;;;;;;;7.23;27.97;100820.53;10459507;28;20433;-70
2022/03/14 07:40:48;;;;;;;7.03;5.90;;;;;;;7.49;28.60;100810.78;10459023;28;20048;-69
2022/03/14 07:45:50;;;;;;;6.28;5.75;;;;;;;7.51;28.40;100829.94;10458436;28;20513;-69
2022/03/14 07:50:52;;;;;;;6.45;5.85;;;;;;;7.91;28.39;100847.97;10441364;28;20095;-71
2022/03/14 07:55:54;;;;;;;6.68;5.60;;;;;;;7.87;27.52;100851.50;10459204;28;20395;-71
2022/03/14 08:00:56;;;;;;;10.40;6.05;;;;;;;7.79;27.63;100866.38;10458266;28;20037;-71
2022/03/14 08:06:00;;;;;;;7.53;6.32;;;;;;;7.94;28.61;100868.91;10459770;28;20048;-71
2022/03/14 08:11:04;;;;;;;7.30;6.60;;;;;;;8.16;27.79;100872.22;10458523;28;20051;-72
2022/03/14 08:16:07;;;;;;;7.18;6.47;;;;;;;8.26;27.93;100870.38;10458095;28;20045;-71
2022/03/14 08:21:09;;;;;;;6.70;6.10;;;;;;;8.53;27.45;100874.53;10458562;28;20462;-71
2022/03/14 08:26:10;;;;;;;8.05;6.13;;;;;;;9.07;27.30;100870.44;10458303;28;20490;-70
2022/03/14 08:31:14;;;;;;;6.30;5.70;;;;;;;8.77;27.23;100883.91;10458711;28;20160;-71
2022/03/14 08:36:20;;;;;;;6.30;5.70;;;;;;;9.19;27.02;100894.75;10460166;28;20119;-72
2022/03/14 08:41:21;;;;;;;10.57;6.32;;;;;;;9.46;26.03;100890.91;10457930;28;20041;-70
2022/03/14 08:46:23;;;;;;;6.32;5.82;;;;;;;9.52;26.26;100886.47;10461062;28;20048;-71
2022/03/14 08:51:25;;;;;;;9.88;6.50;;;;;;;9.69;26.19;100888.81;10460533;28;20072;-71
2022/03/14 08:56:27;;;;;;;6.35;5.75;;;;;;;10.13;26.00;100894.28;10465549;28;20127;-71
2022/03/14 09:01:29;;;;;;;6.78;6.18;;;;;;;10.46;26.08;100882.41;10464694;28;20051;-71
2022/03/14 09:06:31;;;;;;;6.57;5.95;;;;;;;10.44;26.10;100876.28;10465092;28;20118;-71
2022/03/14 09:11:32;;;;;;;9.30;6.10;;;;;;;10.83;26.30;100890.47;10465572;28;20045;-71
2022/03/14 09:16:35;;;;;;;7.38;6.65;;;;;;;10.69;25.49;100881.97;10446449;28;20049;-71
2022/03/14 09:21:38;;;;;;;7.15;6.45;;;;;;;10.85;25.50;100881.66;10463227;28;20128;-71
2022/03/14 09:26:41;;;;;;;6.65;6.05;;;;;;;11.20;25.34;100892.34;10462947;28;20068;-71
2022/03/14 09:31:42;;;;;;;7.38;6.68;;;;;;;11.52;25.52;100907.50;10463390;28;20041;-71
2022/03/14 09:36:45;;;;;;;6.55;5.65;;;;;;;11.25;25.91;100909.81;10462983;28;20073;-71
2022/03/14 09:41:49;;;;;;;6.97;6.38;;;;;;;11.06;25.97;100917.19;10445879;28;20380;-71
2022/03/14 09:46:54;;;;;;;7.88;6.60;;;;;;;11.30;26.64;100921.09;10464039;28;20407;-70
2022/03/14 09:51:58;;;;;;;9.65;6.63;;;;;;;11.36;25.39;100930.63;10445607;28;20521;-71
2022/03/14 09:57:01;;;;;;;7.20;6.60;;;;;;;11.33;25.79;100933.31;10463701;28;20056;-71
2022/03/14 10:02:03;;;;;;;6.82;6.22;;;;;;;11.07;26.36;100926.81;10462668;28;20041;-71
2022/03/14 10:07:07;;;;;;;6.47;5.95;;;;;;;12.02;24.72;100927.44;10463232;28;20051;-71
2022/03/14 10:12:09;;;;;;;6.47;5.82;;;;;;;12.83;24.69;100937.72;10463728;28;20056;-70
2022/03/14 10:17:11;;;;;;;7.18;6.47;;;;;;;13.27;23.75;100933.03;10462094;28;20053;-71
2022/03/14 10:22:14;;;;;;;8.68;7.35;;;;;;;13.72;22.69;100940.50;10461282;28;20048;-71
2022/03/14 10:27:17;;;;;;;7.72;6.82;;;;;;;13.21;23.53;100949.00;10461658;28;20041;-71
2022/03/14 10:32:31;;;;;;;7.57;6.88;;;;;;;13.11;24.23;100949.28;10461879;28;20040;-72
2022/03/14 10:37:35;;;;;;;7.60;6.70;;;;;;;12.65;25.09;100956.66;10460890;28;20045;-71
2022/03/14 10:42:39;;;;;;;7.38;6.78;;;;;;;12.59;25.45;100955.06;10460114;28;20055;-69
2022/03/14 10:47:52;;;;;;;7.15;6.65;;;;;;;12.77;24.92;100959.00;10461354;28;20482;-70
2022/03/14 10:53:11;;;;;;;7.95;7.25;;;;;;;12.65;24.06;100969.84;10462188;28;20044;-69
2022/03/14 10:58:18;;;;;;;7.55;6.85;;;;;;;12.55;25.05;100972.72;10462270;28;20435;-70
2022/03/14 11:03:21;;;;;;;8.93;7.50;;;;;;;12.75;24.03;100979.25;10462875;28;20045;-71
2022/03/14 11:08:28;;;;;;;7.55;6.90;;;;;;;12.82;23.86;100979.06;10442238;28;20076;-70
2022/03/14 11:13:30;;;;;;;7.78;7.18;;;;;;;12.53;24.30;101000.94;10441724;28;20087;-70
2022/03/14 11:18:37;;;;;;;7.80;6.93;;;;;;;12.24;25.39;100993.69;10443413;28;20049;-71
2022/03/14 11:23:39;;;;;;;7.85;7.18;;;;;;;12.15;25.28;100999.19;10460410;28;20052;-70
2022/03/14 11:28:42;;;;;;;8.63;7.70;;;;;;;12.07;25.70;101001.13;10443437;28;20044;-70
2022/03/14 11:33:44;;;;;;;8.27;7.47;;;;;;;12.05;25.26;101001.16;10460400;28;20052;-70
2022/03/14 11:38:46;;;;;;;8.52;7.60;;;;;;;12.25;24.90;100994.56;10459574;28;20490;-70
2022/03/14 11:43:50;;;;;;;8.02;6.93;;;;;;;12.19;25.15;101007.88;10459963;28;20045;-71
2022/03/14 11:49:13;;;;;;;8.60;7.90;;;;;;;12.48;25.33;100999.28;10443219;28;20051;-71
2022/03/14 11:54:15;;;;;;;7.95;7.25;;;;;;;12.52;25.13;100993.88;10441847;28;20119;-72
2022/03/14 11:59:26;;;;;;;8.50;7.72;;;;;;;12.43;25.23;100999.38;10460009;28;20112;-70
2022/03/14 12:04:30;;;;;;;7.65;6.95;;;;;;;12.39;25.02;100987.19;10459258;28;20044;-71
2022/03/14 12:09:34;;;;;;;9.52;8.07;;;;;;;12.39;25.57;100987.19;10460169;28;20049;-70
2022/03/14 12:14:47;;;;;;;8.55;7.85;;;;;;;12.48;25.55;100984.31;10426293;28;20079;-70
2022/03/14 12:20:14;;;;;;;7.32;6.68;;;;;;;12.62;25.88;100981.38;10459653;28;20049;-70
2022/03/14 12:25:39;;;;;;;8.65;7.80;;;;;;;12.85;25.78;100979.00;10461202;28;20095;-71
2022/03/14 12:30:41;;;;;;;8.75;7.95;;;;;;;12.80;26.24;100980.03;10468036;28;20048;-71
2022/03/14 12:35:42;;;;;;;9.07;8.23;;;;;;;12.83;26.45;100982.56;10448007;28;20063;-71
2022/03/14 12:40:46;;;;;;;8.75;7.43;;;;;;;12.59;26.78;101002.53;10447997;28;20055;-71
2022/03/14 12:45:51;;;;;;;8.70;7.90;;;;;;;12.56;27.52;101002.59;10465859;28;20433;-70
2022/03/14 12:50:56;;;;;;;9.32;8.52;;;;;;;12.56;28.16;101007.88;10437658;28;20503;-71
2022/03/14 12:56:03;;;;;;;13.13;11.88;;;;;;;12.66;28.83;101011.16;10425125;28;20056;-70
2022/03/14 13:01:10;;;;;;;10.13;9.13;;;;;;;13.01;29.93;101020.81;10425081;28;20060;-70
2022/03/14 13:06:12;;;;;;;11.03;10.03;;;;;;;12.80;32.11;101012.56;10408923;28;20041;-71
2022/03/14 13:11:15;;;;;;;13.18;10.40;;;;;;;12.81;32.51;101022.19;10406079;28;20052;-71
2022/03/14 13:16:18;;;;;;;11.65;10.43;;;;;;;12.78;32.28;101024.03;10425517;28;20388;-71
2022/03/14 13:21:26;;;;;;;13.32;10.05;;;;;;;12.79;33.16;101028.41;10424228;28;20112;-71
2022/03/14 13:26:29;;;;;;;;;;;;;;;12.90;34.33;101025.50;10424955;28;20038;-70
2022/03/14 13:31:37;;;;;;;11.90;10.65;;;;;;;12.70;36.47;101020.72;10425157;28;19991;-70
2022/03/14 13:36:44;;;;;;;12.50;11.23;;;;;;;12.72;37.38;101034.75;10404803;28;20144;-70
2022/03/14 13:41:48;;;;;;;11.13;10.32;;;;;;;12.50;40.17;101030.00;10423811;28;20080;-71
2022/03/14 13:46:55;;;;;;;9.82;9.10;;;;;;;12.50;40.72;101040.53;10423480;28;20103;-71
2022/03/14 13:52:01;;;;;;;;;;;;;;;12.62;40.50;101042.03;10422792;28;20128;-69
2022/03/14 13:57:05;;;;;;;13.57;9.80;;;;;;;12.29;40.14;101051.59;10422770;28;20371;-72
2022/03/14 14:02:32;;;;;;;10.95;9.85;;;;;;;11.90;40.89;101064.72;10422260;28;20120;-70
2022/03/14 14:07:34;;;;;;;10.95;9.95;;;;;;;11.92;41.56;101057.66;10405860;28;20064;-70
2022/03/14 14:12:38;;;;;;;10.75;9.85;;;;;;;11.96;41.86;101058.47;10423638;28;20049;-70
2022/03/14 14:17:42;;;;;;;11.30;10.27;;;;;;;11.79;42.27;101082.50;10423798;28;20045;-71
2022/03/14 14:22:53;;;;;;;8.77;7.82;;;;;;;11.47;44.76;101096.28;10423474;28;20518;-70
2022/03/14 14:28:00;;;;;;;5.82;5.32;;;;;;;11.09;47.98;101106.56;10423401;28;20129;-69
2022/03/14 14:33:17;;;;;;;;;;;;;;;10.81;50.39;101113.19;10421112;28;20055;-69
2022/03/14 14:38:22;;;;;;;3.28;2.35;;;;;;;10.53;53.36;101125.84;10425301;28;20271;-74
2022/03/14 14:43:26;;;;;;;1.52;1.30;;;;;;;10.39;55.01;101123.41;10425977;28;20041;-73
2022/03/14 14:48:28;;;;;;;2.22;1.75;;;;;;;10.32;55.20;101137.56;10406084;28;20050;-69
2022/03/14 14:53:29;;;;;;;2.42;1.83;;;;;;;10.27;56.09;101135.00;10421441;28;20042;-68
2022/03/14 14:58:32;;;;;;;11.30;2.03;;;;;;;10.09;56.77;101143.03;10420867;28;20412;-69
2022/03/14 15:03:34;;;;;;;4.05;2.08;;;;;;;10.21;56.95;101131.53;10422303;28;20112;-68
2022/03/14 15:08:37;;;;;;;5.07;2.30;;;;;;;10.40;56.45;101140.94;10404202;28;20388;-69
2022/03/14 15:13:39;;;;;;;2.80;2.17;;;;;;;10.45;56.67;101139.13;10420776;28;20076;-69
2022/03/14 15:18:41;;;;;;;3.70;2.35;;;;;;;10.70;56.23;101142.25;10419483;28;20064;-68
2022/03/14 15:23:42;;;;;;;2.47;2.28;;;;;;;10.65;56.47;101145.84;10421098;28;20046;-68
2022/03/14 15:28:44;;;;;;;2.72;2.40;;;;;;;10.73;57.11;101157.16;10419808;28;20053;-68
2022/03/14 15:33:46;;;;;;;2.70;2.35;;;;;;;10.39;58.15;101157.59;10418193;28;20068;-68
2022/03/14 15:38:48;;;;;;;2.47;2.15;;;;;;;10.23;59.12;101162.16;10420139;28;20367;-69
2022/03/14 15:43:52;;;;;;;3.40;2.40;;;;;;;10.14;59.46;101166.63;10420093;28;20037;-69
2022/03/14 15:48:54;;;;;;;1.67;1.55;;;;;;;10.08;59.48;101185.97;10420467;28;20041;-68
2022/03/14 15:53:56;;;;;;;3.25;1.60;;;;;;;9.86;60.67;101203.72;10420113;28;20046;-70
2022/03/14 15:58:58;;;;;;;2.30;2.10;;;;;;;9.56;63.24;101213.66;10420758;28;20124;-69
2022/03/14 16:04:00;;;;;;;4.93;1.95;;;;;;;9.30;66.07;101226.97;10426941;28;20049;-69
2022/03/14 16:09:03;;;;;;;2.83;1.70;;;;;;;8.82;66.22;101231.66;10427076;28;20049;-70
2022/03/14 16:14:06;;;;;;;1.88;0.80;;;;;;;8.29;65.33;101240.59;10427684;28;20107;-69
2022/03/14 16:19:09;;;;;;;0.95;0.90;;;;;;;8.08;65.84;101256.34;10408974;28;20045;-69
2022/03/14 16:24:10;;;;;;;0.98;0.88;;;;;;;7.98;67.57;101268.59;10461589;28;20049;-69
2022/03/14 16:29:13;;;;;;;1.50;0.80;;;;;;;7.80;70.02;101271.22;10464161;28;20040;-69
2022/03/14 16:34:15;;;;;;;1.25;1.15;;;;;;;7.48;72.70;101286.91;10464770;28;20041;-69
2022/03/14 16:39:17;;;;;;;1.88;1.00;;;;;;;7.35;75.98;101275.59;10464247;28;20100;-68
2022/03/14 16:44:18;;;;;;;1.58;1.30;;;;;;;7.32;78.65;101286.03;10467603;28;20051;-70
2022/03/14 16:49:21;;;;;;;1.95;1.63;;;;;;;7.08;81.14;101297.28;10468082;28;20056;-70
2022/03/14 16:54:26;;;;;;;3.00;1.73;;;;;;;6.86;83.97;101301.59;10468109;28;20041;-68
2022/03/14 16:59:31;;;;;;;2.90;1.88;;;;;;;6.88;85.16;101309.44;10451016;28;20075;-70
2022/03/14 17:04:35;;;;;;;2.83;1.90;;;;;;;6.92;84.86;101311.22;10468124;28;20048;-70
2022/03/14 17:09:36;;;;;;;3.03;2.47;;;;;;;6.88;85.52;101320.78;10467580;28;20045;-72
2022/03/14 17:14:38;;;;;;;1.88;1.42;;;;;;;6.75;85.51;101322.47;10466573;28;20048;-70
2022/03/14 17:19:41;;;;;;;2.20;1.63;;;;;;;6.56;84.34;101324.13;10449450;28;20045;-71
2022/03/14 17:24:47;;;;;;;3.70;1.40;;;;;;;6.54;85.79;101323.22;10467702;28;20049;-71
2022/03/14 17:29:49;;;;;;;1.77;0.90;;;;;;;6.53;84.69;101329.31;10466206;28;20040;-71
2022/03/14 17:34:52;;;;;;;1.40;1.30;;;;;;;6.49;85.53;101317.09;10466143;28;20045;-70
2022/03/14 17:39:53;;;;;;;2.85;1.40;;;;;;;6.34;86.89;101326.59;10452790;28;20056;-70
2022/03/14 17:44:55;;;;;;;2.05;1.60;;;;;;;6.29;88.28;101337.91;10465604;28;20391;-71
2022/03/14 17:49:57;;;;;;;2.60;1.90;;;;;;;6.41;88.13;101334.47;10466079;28;20091;-70
2022/03/14 17:55:02;;;;;;;2.78;2.25;;;;;;;6.49;88.49;101342.34;10465782;28;20450;-71
2022/03/14 18:00:06;;;;;;;3.47;1.80;;;;;;;6.48;88.88;101346.72;10464784;28;20045;-71
2022/03/14 18:05:17;;;;;;;1.80;1.60;;;;;;;6.50;89.25;101338.88;10463788;28;20060;-71
2022/03/14 18:10:20;;;;;;;1.83;1.70;;;;;;;6.46;88.73;101351.06;10464760;28;20041;-71
2022/03/14 18:15:22;;;;;;;2.53;1.80;;;;;;;6.51;89.41;101353.69;10464787;28;20069;-71
2022/03/14 18:20:25;;;;;;;2.65;2.10;;;;;;;6.34;90.56;101356.19;10446613;28;20045;-70
2022/03/14 18:25:28;;;;;;;2.40;2.20;;;;;;;6.31;91.01;101362.25;10462582;28;20029;-70
2022/03/14 18:30:30;;;;;;;2.58;1.80;;;;;;;6.37;91.32;101356.19;10463240;28;20497;-71
2022/03/14 18:35:31;;;;;;;2.90;1.90;;;;;;;6.43;90.89;101364.09;10427675;28;20045;-70
2022/03/14 18:40:37;;;;;;;2.50;2.28;;;;;;;6.56;90.78;101363.31;10461303;28;20509;-71
2022/03/14 18:45:39;;;;;;;4.15;2.38;;;;;;;6.45;91.41;101371.94;10461523;28;20464;-71
2022/03/14 18:50:41;;;;;;;2.35;2.15;;;;;;;6.53;91.70;101376.34;10460585;28;20161;-71
2022/03/14 18:55:43;;;;;;;5.32;2.45;;;;;;;6.59;92.35;101367.66;10460516;28;20506;-70
2022/03/14 19:00:47;;;;;;;3.38;2.67;;;;;;;6.53;91.60;101376.34;10460400;28;20041;-70
2022/03/14 19:05:50;;;;;;;5.15;3.00;;;;;;;6.52;92.44;101379.81;10461230;28;20053;-71
2022/03/14 19:10:51;;;;;;;3.55;3.25;;;;;;;6.46;92.51;101387.63;10462375;28;20064;-70
2022/03/14 19:15:55;;;;;;;4.32;3.92;;;;;;;6.61;93.56;101397.31;10462914;28;20049;-71
2022/03/14 19:20:56;;;;;;;5.05;4.20;;;;;;;6.59;92.76;101396.41;10443165;28;20049;-70
2022/03/14 19:25:58;;;;;;;5.50;5.00;;;;;;;6.81;93.01;101390.44;10462496;28;20037;-72
2022/03/14 19:31:04;;;;;;;4.85;4.43;;;;;;;6.91;92.71;101393.13;10461746;28;20041;-71
2022/03/14 19:36:08;;;;;;;6.15;5.43;;;;;;;6.92;92.84;101400.97;10461597;28;20033;-70
2022/03/14 19:41:10;;;;;;;7.45;6.13;;;;;;;6.90;93.62;101405.28;10460973;28;20462;-71
2022/03/14 19:46:12;;;;;;;8.80;6.38;;;;;;;6.99;92.38;101396.63;10460895;28;20049;-71
2022/03/14 19:51:14;;;;;;;6.45;5.85;;;;;;;7.06;91.73;101399.28;10459808;28;20079;-71
2022/03/14 19:56:15;;;;;;;10.65;6.07;;;;;;;7.16;91.71;101404.53;10460514;28;20049;-72
2022/03/14 20:01:17;;;;;;;6.72;6.10;;;;;;;7.04;91.89;101405.38;10460827;28;20051;-70
2022/03/14 20:06:19;;;;;;;7.50;5.60;;;;;;;7.16;91.81;101404.53;10460801;28;20041;-71
2022/03/14 20:11:21;;;;;;;7.60;6.80;;;;;;;7.10;91.93;101405.41;10459510;28;20048;-71
2022/03/14 20:16:24;;;;;;;7.13;6.25;;;;;;;7.13;91.50;101400.19;10461019;28;20045;-71
2022/03/14 20:21:27;;;;;;;7.57;6.70;;;;;;;6.97;91.32;101407.06;10461086;28;20051;-71
2022/03/14 20:26:29;;;;;;;7.32;6.63;;;;;;;7.02;90.77;101407.97;10460941;28;20049;-71
2022/03/14 20:31:31;;;;;;;7.63;6.28;;;;;;;6.98;90.70;101411.44;10444026;28;20075;-71
2022/03/14 20:36:33;;;;;;;7.20;6.50;;;;;;;6.99;90.95;101410.56;10459057;28;20163;-70
2022/03/14 20:41:35;;;;;;;6.10;5.38;;;;;;;7.04;89.54;101411.47;10457915;28;20043;-70
2022/03/14 20:46:37;;;;;;;7.93;5.90;;;;;;;7.15;90.07;101405.41;10460419;28;20079;-72
2022/03/14 20:51:41;;;;;;;6.20;5.60;;;;;;;7.24;89.46;101408.94;10468348;28;20044;-74
2022/03/14 20:56:43;;;;;;;7.97;6.57;;;;;;;6.94;90.52;101406.19;10485360;28;20410;-71
2022/03/14 21:01:46;;;;;;;9.32;5.70;;;;;;;6.93;90.92;101413.16;10467806;28;20056;-71
2022/03/14 21:06:50;;;;;;;7.93;6.10;;;;;;;7.00;90.35;101430.63;10467383;28;20121;-73
2022/03/14 21:11:53;;;;;;;6.88;6.18;;;;;;;6.73;90.02;101440.91;10471178;28;20118;-72
2022/03/14 21:16:57;;;;;;;6.78;6.10;;;;;;;6.70;89.34;101449.63;10467507;28;20471;-70
2022/03/14 21:21:59;;;;;;;7.28;6.57;;;;;;;6.81;90.17;101444.44;10465551;28;20457;-71
2022/03/14 21:27:01;;;;;;;6.57;6.03;;;;;;;6.69;90.13;101434.81;10465875;28;20070;-71
2022/03/14 21:32:03;;;;;;;6.88;6.25;;;;;;;6.85;88.85;101440.13;10465156;28;20045;-70
2022/03/14 21:37:06;;;;;;;7.28;6.57;;;;;;;6.67;89.47;101443.47;10447365;28;20421;-71
2022/03/14 21:42:07;;;;;;;6.85;6.13;;;;;;;6.61;90.26;101426.03;10465762;28;20072;-70
2022/03/14 21:47:09;;;;;;;7.97;5.70;;;;;;;6.78;88.98;101424.41;10447134;28;20053;-70
2022/03/14 21:52:11;;;;;;;7.03;5.55;;;;;;;6.81;88.04;101415.69;10464200;28;20040;-70
2022/03/14 21:57:13;;;;;;;6.70;6.00;;;;;;;6.56;87.29;101402.50;10446750;28;20033;-69
2022/03/14 22:02:14;;;;;;;6.63;5.80;;;;;;;6.68;87.61;101400.81;10462850;28;20033;-71
2022/03/14 22:07:17;;;;;;;6.57;5.97;;;;;;;6.56;87.15;101399.88;10463731;28;20049;-70
2022/03/14 22:12:19;;;;;;;6.00;5.40;;;;;;;6.54;86.07;101395.50;10464490;28;20047;-71
2022/03/14 22:17:21;;;;;;;6.20;5.63;;;;;;;6.44;86.90;101402.41;10465192;28;20045;-70
2022/03/14 22:22:24;;;;;;;6.60;5.60;;;;;;;6.44;85.97;101396.31;10465220;28;20044;-71
2022/03/14 22:27:30;;;;;;;6.78;5.60;;;;;;;6.40;86.11;101404.97;10464042;28;20049;-70
2022/03/14 22:32:34;;;;;;;6.55;5.53;;;;;;;6.41;85.53;101409.34;10464736;28;20068;-70
2022/03/14 22:37:35;;;;;;;6.68;6.07;;;;;;;6.31;84.94;101409.28;10463073;28;20047;-70
2022/03/14 22:42:37;;;;;;;6.93;5.75;;;;;;;6.31;85.30;101418.84;10461556;28;20041;-70
2022/03/14 22:47:39;;;;;;;7.95;5.43;;;;;;;6.27;84.84;101417.94;10462704;28;20103;-70
2022/03/14 22:52:42;;;;;;;8.63;5.53;;;;;;;6.35;84.18;101420.63;10461624;28;20120;-70
2022/03/14 22:57:43;;;;;;;5.35;4.85;;;;;;;6.29;84.44;101428.41;10443068;28;20049;-70
2022/03/14 23:08:23;;;;;;;5.85;5.25;;;;;;;6.59;82.83;101440.81;10461815;28;20118;-70
2022/03/14 23:13:25;;;;;;;7.00;5.35;;;;;;;6.60;82.10;101441.69;10460940;28;20045;-70
2022/03/14 23:18:31;;;;;;;6.65;5.03;;;;;;;6.61;82.25;101444.31;10462066;28;20079;-70
2022/03/14 23:23:34;;;;;;;5.78;4.45;;;;;;;6.75;80.94;101437.44;10462294;28;20041;-70
2022/03/14 23:28:36;;;;;;;5.55;4.57;;;;;;;6.76;80.22;101430.47;10462480;28;20044;-70